createdAt,value
2019-01-28T00:03:51.212Z,76.92
2019-01-28T00:06:19.395Z,77.04
2019-01-28T00:08:47.578Z,76.92
2019-01-28T00:11:15.776Z,76.90
2019-01-28T00:16:32.827Z,77.06
2019-01-28T00:19:01.005Z,77.05
2019-01-28T00:21:29.199Z,76.94
2019-01-28T00:23:57.373Z,76.95
2019-01-28T00:26:25.566Z,76.95
2019-01-28T00:28:53.742Z,77.03
2019-01-28T00:31:21.942Z,77.20
2019-01-28T00:33:50.116Z,77.08
2019-01-28T00:36:18.307Z,77.04
2019-01-28T00:38:46.483Z,76.85
2019-01-28T00:41:14.681Z,77.02
2019-01-28T00:43:42.856Z,77.00
2019-01-28T00:46:11.046Z,77.02
2019-01-28T00:48:39.225Z,77.03
2019-01-28T00:51:07.418Z,77.07
2019-01-28T00:53:35.596Z,77.12
2019-01-28T00:56:03.918Z,77.18
2019-01-28T00:58:32.043Z,76.99
2019-01-28T01:01:00.237Z,77.15
2019-01-28T01:03:28.418Z,76.96
2019-01-28T01:05:56.615Z,77.25
2019-01-28T01:08:24.789Z,77.31
2019-01-28T01:10:52.977Z,77.33
2019-01-28T01:13:21.153Z,77.37
2019-01-28T01:15:49.345Z,77.12
2019-01-28T01:18:17.713Z,77.23
2019-01-28T01:20:45.877Z,77.40
2019-01-28T01:23:14.060Z,77.42
2019-01-28T01:25:42.251Z,77.50
2019-01-28T01:28:10.429Z,77.60
2019-01-28T01:30:38.615Z,77.43
2019-01-28T01:33:06.800Z,77.54
2019-01-28T01:35:34.988Z,77.60
2019-01-28T01:38:03.163Z,77.53
2019-01-28T01:40:31.354Z,77.54
2019-01-28T01:42:59.533Z,77.70
2019-01-28T01:45:27.739Z,77.40
2019-01-28T01:47:55.914Z,77.40
2019-01-28T01:50:24.111Z,77.43
2019-01-28T01:52:52.289Z,77.35
2019-01-28T01:55:20.473Z,77.22
2019-01-28T01:57:48.655Z,77.28
2019-01-28T02:03:17.376Z,76.89
2019-01-28T02:05:45.574Z,77.06
2019-01-28T02:08:13.756Z,76.83
2019-01-28T02:10:41.935Z,76.93
2019-01-28T02:13:10.125Z,76.68
2019-01-28T02:15:38.300Z,76.78
2019-01-28T02:18:06.489Z,76.76
2019-01-28T02:20:34.670Z,76.75
2019-01-28T02:23:42.974Z,76.79
2019-01-28T02:26:11.148Z,76.56
2019-01-28T02:28:39.401Z,76.41
2019-01-28T02:31:07.591Z,76.57
2019-01-28T02:33:35.773Z,76.47
2019-01-28T02:36:03.951Z,76.33
2019-01-28T02:38:32.139Z,76.52
2019-01-28T02:41:00.319Z,76.41
2019-01-28T02:43:28.505Z,76.38
2019-01-28T02:45:56.695Z,76.65
2019-01-28T02:48:24.884Z,76.49
2019-01-28T02:50:53.060Z,76.55
2019-01-28T02:53:21.261Z,76.34
2019-01-28T02:55:49.430Z,76.33
2019-01-28T02:58:17.621Z,76.33
2019-01-28T03:00:45.804Z,76.08
2019-01-28T03:03:13.992Z,76.32
2019-01-28T03:05:42.179Z,75.89
2019-01-28T03:08:10.367Z,76.05
2019-01-28T03:10:38.545Z,75.84
2019-01-28T03:13:06.735Z,75.77
2019-01-28T03:15:34.917Z,75.56
2019-01-28T03:18:03.102Z,75.47
2019-01-28T03:20:31.283Z,75.57
2019-01-28T03:22:59.505Z,75.49
2019-01-28T03:25:27.668Z,75.20
2019-01-28T03:27:55.861Z,75.18
2019-01-28T03:30:24.043Z,75.16
2019-01-28T03:32:52.235Z,75.07
2019-01-28T03:35:20.421Z,75.07
2019-01-28T03:37:48.680Z,75.12
2019-01-28T03:43:30.353Z,74.80
2019-01-28T03:45:58.531Z,74.79
2019-01-28T03:48:26.721Z,75.06
2019-01-28T03:50:54.901Z,74.92
2019-01-28T03:55:58.347Z,74.87
2019-01-28T03:58:26.532Z,74.77
2019-01-28T04:00:54.707Z,74.48
2019-01-28T04:03:22.899Z,74.66
2019-01-28T04:05:51.085Z,74.40
2019-01-28T04:08:19.273Z,74.45
2019-01-28T04:10:47.452Z,74.55
2019-01-28T04:13:15.650Z,74.45
2019-01-28T04:18:57.375Z,74.39
2019-01-28T04:21:25.552Z,74.50
2019-01-28T04:23:53.741Z,74.60
2019-01-28T04:29:10.808Z,74.68
2019-01-28T04:31:39.008Z,74.48
2019-01-28T04:34:07.183Z,74.48
2019-01-28T04:36:35.365Z,74.48
2019-01-28T04:41:42.526Z,74.32
2019-01-28T04:44:10.722Z,74.27
2019-01-28T04:46:38.899Z,74.06
2019-01-28T04:49:07.091Z,74.18
2019-01-28T04:51:35.278Z,74.03
2019-01-28T04:54:03.463Z,74.09
2019-01-28T04:56:31.642Z,74.10
2019-01-28T04:58:59.848Z,73.98
2019-01-28T05:01:28.026Z,74.09
2019-01-28T05:03:56.207Z,74.27
2019-01-28T05:06:24.398Z,74.19
2019-01-28T05:08:52.572Z,74.23
2019-01-28T05:11:20.765Z,74.38
2019-01-28T05:13:48.944Z,74.50
2019-01-28T05:16:17.137Z,74.35
2019-01-28T05:18:45.317Z,74.49
2019-01-28T05:21:13.513Z,74.32
2019-01-28T05:23:41.698Z,74.41
2019-01-28T05:26:09.895Z,74.48
2019-01-28T05:28:38.084Z,74.66
2019-01-28T05:31:06.271Z,74.58
2019-01-28T05:33:34.447Z,74.61
2019-01-28T05:36:02.651Z,74.65
2019-01-28T05:38:30.829Z,74.67
2019-01-28T05:40:59.027Z,74.74
2019-01-28T05:43:27.204Z,74.83
2019-01-28T05:45:55.400Z,74.89
2019-01-28T05:48:23.580Z,75.02
2019-01-28T05:50:51.770Z,74.93
2019-01-28T05:53:19.948Z,74.98
2019-01-28T05:55:48.140Z,74.83
2019-01-28T05:58:16.326Z,74.87
2019-01-28T06:00:44.517Z,74.96
2019-01-28T06:03:12.702Z,74.96
2019-01-28T06:05:40.895Z,74.97
2019-01-28T06:08:09.080Z,75.06
2019-01-28T06:10:37.283Z,74.86
2019-01-28T06:13:05.461Z,74.87
2019-01-28T06:15:33.653Z,74.90
2019-01-28T06:18:01.848Z,75.01
2019-01-28T06:20:30.032Z,75.15
2019-01-28T06:22:58.210Z,75.23
2019-01-28T06:25:26.405Z,75.06
2019-01-28T06:27:54.584Z,74.84
2019-01-28T06:31:02.884Z,75.20
2019-01-28T06:33:31.063Z,75.39
2019-01-28T06:35:59.257Z,75.26
2019-01-28T06:38:27.431Z,75.47
2019-01-28T06:40:55.628Z,75.62
2019-01-28T06:43:23.808Z,75.52
2019-01-28T06:45:52.006Z,75.61
2019-01-28T06:48:20.185Z,75.68
2019-01-28T06:50:48.383Z,75.78
2019-01-28T06:53:16.561Z,75.85
2019-01-28T06:55:44.758Z,75.84
2019-01-28T06:58:12.936Z,75.93
2019-01-28T07:00:41.112Z,76.00
2019-01-28T07:03:09.307Z,75.88
2019-01-28T07:05:37.479Z,75.79
2019-01-28T07:08:05.667Z,75.89
2019-01-28T07:10:33.860Z,75.96
2019-01-28T07:13:02.051Z,75.62
2019-01-28T07:15:30.231Z,75.62
2019-01-28T07:17:58.423Z,75.55
2019-01-28T07:23:40.220Z,75.83
2019-01-28T07:26:08.401Z,75.93
2019-01-28T07:28:36.610Z,76.01
2019-01-28T07:31:04.777Z,76.04
2019-01-28T07:33:32.975Z,76.10
2019-01-28T07:36:01.152Z,76.28
2019-01-28T07:38:29.341Z,76.40
2019-01-28T07:41:16.949Z,76.44
2019-01-28T07:43:45.141Z,76.59
2019-01-28T07:46:13.324Z,76.54
2019-01-28T07:48:41.513Z,76.66
2019-01-28T07:51:09.699Z,76.60
2019-01-28T07:53:37.888Z,76.51
2019-01-28T07:56:06.065Z,76.68
2019-01-28T07:58:34.259Z,76.54
2019-01-28T08:01:02.441Z,76.61
2019-01-28T08:03:30.633Z,76.70
2019-01-28T08:05:58.809Z,76.81
2019-01-28T08:08:27.002Z,76.91
2019-01-28T08:10:55.176Z,76.67
2019-01-28T08:13:23.367Z,76.69
2019-01-28T08:15:51.545Z,76.58
2019-01-28T08:18:19.766Z,76.52
2019-01-28T08:20:47.950Z,76.38
2019-01-28T08:23:16.127Z,76.48
2019-01-28T08:25:44.322Z,76.61
2019-01-28T08:28:12.502Z,76.71
2019-01-28T08:30:40.684Z,76.51
2019-01-28T08:33:08.876Z,76.56
2019-01-28T08:35:37.076Z,76.34
2019-01-28T08:38:05.257Z,76.18
2019-01-28T08:40:33.446Z,76.33
2019-01-28T08:43:01.646Z,76.49
2019-01-28T08:45:29.830Z,76.29
2019-01-28T08:47:58.013Z,76.31
2019-01-28T08:51:06.319Z,76.21
2019-01-28T08:53:34.492Z,76.50
2019-01-28T08:56:02.695Z,76.35
2019-01-28T08:58:30.881Z,76.25
2019-01-28T09:00:59.069Z,76.10
2019-01-28T09:03:27.245Z,76.19
2019-01-28T09:05:55.434Z,76.15
2019-01-28T09:08:23.619Z,76.10
2019-01-28T09:10:51.808Z,75.96
2019-01-28T09:13:19.992Z,76.23
2019-01-28T09:15:48.181Z,76.08
2019-01-28T09:18:16.361Z,75.97
2019-01-28T09:20:44.553Z,76.10
2019-01-28T09:23:12.733Z,76.17
2019-01-28T09:25:40.932Z,76.24
2019-01-28T09:28:09.104Z,76.41
2019-01-28T09:30:37.314Z,76.39
2019-01-28T09:33:05.543Z,76.27
2019-01-28T09:35:33.688Z,76.40
2019-01-28T09:38:01.861Z,76.56
2019-01-28T09:41:10.165Z,76.44
2019-01-28T09:43:38.349Z,76.45
2019-01-28T09:46:06.543Z,76.40
2019-01-28T09:48:34.725Z,76.31
2019-01-28T09:51:02.913Z,76.35
2019-01-28T09:53:31.097Z,76.19
2019-01-28T09:55:59.286Z,76.14
2019-01-28T09:58:27.468Z,76.24
2019-01-28T10:00:55.667Z,76.37
2019-01-28T10:03:23.835Z,76.17
2019-01-28T10:05:52.025Z,75.92
2019-01-28T10:08:20.212Z,76.00
2019-01-28T10:10:48.394Z,76.13
2019-01-28T10:13:16.592Z,76.33
2019-01-28T10:16:04.233Z,76.61
2019-01-28T10:18:32.415Z,76.50
2019-01-28T10:21:00.595Z,76.32
2019-01-28T10:23:28.784Z,76.29
2019-01-28T10:25:57.812Z,76.32
2019-01-28T10:28:26.873Z,76.22
2019-01-28T10:30:55.050Z,76.29
2019-01-28T10:33:23.275Z,76.50
2019-01-28T10:35:51.460Z,76.19
2019-01-28T10:38:19.645Z,76.29
2019-01-28T10:40:47.825Z,76.37
2019-01-28T10:43:16.012Z,76.09
2019-01-28T10:45:44.191Z,76.08
2019-01-28T10:48:12.380Z,76.09
2019-01-28T10:53:54.806Z,75.93
2019-01-28T10:56:22.981Z,75.75
2019-01-28T10:58:51.173Z,75.63
2019-01-28T11:01:19.359Z,75.21
2019-01-28T11:03:47.545Z,75.50
2019-01-28T11:06:15.719Z,75.63
2019-01-28T11:08:43.905Z,75.52
2019-01-28T11:11:12.088Z,75.53
2019-01-28T11:13:40.280Z,75.08
2019-01-28T11:16:08.457Z,75.16
2019-01-28T11:18:36.680Z,74.78
2019-01-28T11:21:04.912Z,74.86
2019-01-28T11:23:33.117Z,74.73
2019-01-28T11:26:01.355Z,74.79
2019-01-28T11:28:29.504Z,74.90
2019-01-28T11:31:37.904Z,74.73
2019-01-28T11:34:06.211Z,74.75
2019-01-28T11:36:34.400Z,74.60
2019-01-28T11:39:02.750Z,74.65
2019-01-28T11:41:31.055Z,74.44
2019-01-28T11:43:59.364Z,74.28
2019-01-28T11:46:27.650Z,74.08
2019-01-28T11:48:55.827Z,74.16
2019-01-28T11:51:23.989Z,74.08
2019-01-28T11:53:52.175Z,74.19
2019-01-28T11:56:20.378Z,74.03
2019-01-28T11:58:48.545Z,74.07
2019-01-28T12:04:05.608Z,73.92
2019-01-28T12:06:33.796Z,73.88
2019-01-28T12:09:01.987Z,73.72
2019-01-28T12:11:30.163Z,73.54
2019-01-28T12:13:58.364Z,73.45
2019-01-28T12:16:26.543Z,73.40
2019-01-28T12:18:54.740Z,73.35
2019-01-28T12:21:30.180Z,73.31
2019-01-28T12:23:58.376Z,73.39
2019-01-28T12:26:26.562Z,73.34
2019-01-28T12:28:54.788Z,73.30
2019-01-28T12:31:22.992Z,73.29
2019-01-28T12:33:51.167Z,73.27
2019-01-28T12:36:19.362Z,73.22
2019-01-28T12:38:47.537Z,73.04
2019-01-28T12:41:17.559Z,73.04
2019-01-28T12:43:45.624Z,72.96
2019-01-28T12:46:13.826Z,72.89
2019-01-28T12:48:42.006Z,72.92
2019-01-28T12:51:10.200Z,72.86
2019-01-28T12:53:38.392Z,72.64
2019-01-28T12:56:06.586Z,72.68
2019-01-28T12:58:34.761Z,72.58
2019-01-28T13:03:42.074Z,72.49
2019-01-28T13:06:10.264Z,72.54
2019-01-28T13:08:38.446Z,72.65
2019-01-28T13:11:06.638Z,72.67
2019-01-28T13:13:34.818Z,72.63
2019-01-28T13:16:03.008Z,72.73
2019-01-28T13:18:31.191Z,72.64
2019-01-28T13:20:59.381Z,72.61
2019-01-28T13:23:27.566Z,72.61
2019-01-28T13:25:55.757Z,72.56
2019-01-28T13:28:23.941Z,72.73
2019-01-28T13:30:52.141Z,72.81
2019-01-28T13:33:20.326Z,72.81
2019-01-28T13:35:48.524Z,72.81
2019-01-28T13:38:16.768Z,72.88
2019-01-28T13:40:44.945Z,72.96
2019-01-28T13:43:13.137Z,72.86
2019-01-28T13:45:41.311Z,72.88
2019-01-28T13:48:49.617Z,72.94
2019-01-28T13:51:17.810Z,73.13
2019-01-28T13:53:45.996Z,73.17
2019-01-28T13:56:14.194Z,73.32
2019-01-28T13:58:42.382Z,73.20
2019-01-28T14:01:10.579Z,73.33
2019-01-28T14:03:38.762Z,73.34
2019-01-28T14:06:06.940Z,73.50
2019-01-28T14:08:35.137Z,73.61
2019-01-28T14:11:03.312Z,73.64
2019-01-28T14:13:31.507Z,73.62
2019-01-28T14:15:59.679Z,73.62
2019-01-28T14:18:27.875Z,73.54
2019-01-28T14:21:36.172Z,73.57
2019-01-28T14:24:04.365Z,73.55
2019-01-28T14:26:32.550Z,73.40
2019-01-28T14:29:00.750Z,73.53
2019-01-28T14:31:28.931Z,73.57
2019-01-28T14:33:57.124Z,73.64
2019-01-28T14:36:25.355Z,73.66
2019-01-28T14:38:53.559Z,73.71
2019-01-28T14:41:41.176Z,73.53
2019-01-28T14:44:09.392Z,73.65
2019-01-28T14:46:37.544Z,73.68
2019-01-28T14:49:05.736Z,73.64
2019-01-28T14:51:35.680Z,73.69
2019-01-28T14:54:03.911Z,73.84
2019-01-28T14:56:32.094Z,73.88
2019-01-28T14:59:00.283Z,73.95
2019-01-28T15:01:28.473Z,74.02
2019-01-28T15:03:56.697Z,74.02
2019-01-28T15:06:24.885Z,74.00
2019-01-28T15:08:53.091Z,74.02
2019-01-28T15:11:21.260Z,74.00
2019-01-28T15:13:49.461Z,74.05
2019-01-28T15:16:17.640Z,73.84
2019-01-28T15:18:45.833Z,74.05
2019-01-28T15:21:33.448Z,74.26
2019-01-28T15:24:01.647Z,74.28
2019-01-28T15:26:29.867Z,74.45
2019-01-28T15:28:58.043Z,74.54
2019-01-28T15:31:26.224Z,74.61
2019-01-28T15:33:54.405Z,74.72
2019-01-28T15:36:22.598Z,74.79
2019-01-28T15:38:50.795Z,74.83
2019-01-28T15:41:18.984Z,75.00
2019-01-28T15:43:47.169Z,75.01
2019-01-28T15:46:15.369Z,75.26
2019-01-28T15:48:43.558Z,75.28
2019-01-28T15:51:11.741Z,75.34
2019-01-28T15:53:39.946Z,75.18
2019-01-28T15:56:08.133Z,75.56
2019-01-28T15:58:36.316Z,75.63
2019-01-28T16:01:04.510Z,75.28
2019-01-28T16:03:32.686Z,75.36
2019-01-28T16:06:00.879Z,75.70
2019-01-28T16:08:29.064Z,75.76
2019-01-28T16:10:57.257Z,75.57
2019-01-28T16:13:25.466Z,75.58
2019-01-28T16:15:53.635Z,75.44
2019-01-28T16:18:21.819Z,75.42
2019-01-28T16:20:50.017Z,75.44
2019-01-28T16:23:18.200Z,75.44
2019-01-28T16:25:46.391Z,75.46
2019-01-28T16:28:14.646Z,75.44
2019-01-28T16:30:42.844Z,75.39
2019-01-28T16:33:11.022Z,75.53
2019-01-28T16:35:39.217Z,75.67
2019-01-28T16:38:07.405Z,75.77
2019-01-28T16:40:35.594Z,75.96
2019-01-28T16:43:03.794Z,76.07
2019-01-28T16:45:31.977Z,76.15
2019-01-28T16:48:00.176Z,76.22
2019-01-28T16:53:29.189Z,76.68
2019-01-28T16:55:58.807Z,77.06
2019-01-28T16:58:26.988Z,77.20
2019-01-28T17:00:55.164Z,77.27
2019-01-28T17:03:23.361Z,77.51
2019-01-28T17:05:51.540Z,77.65
2019-01-28T17:08:19.732Z,77.56
2019-01-28T17:10:47.909Z,77.40
2019-01-28T17:13:16.096Z,77.29
2019-01-28T17:16:03.644Z,77.10
2019-01-28T17:18:31.836Z,76.94
2019-01-28T17:21:00.011Z,76.96
2019-01-28T17:23:28.205Z,77.15
2019-01-28T17:25:56.394Z,76.78
2019-01-28T17:28:24.588Z,76.86
2019-01-28T17:30:52.777Z,76.94
2019-01-28T17:33:21.492Z,76.38
2019-01-28T17:35:50.868Z,76.15
2019-01-28T17:38:19.062Z,76.37
2019-01-28T17:40:47.247Z,76.36
2019-01-28T17:43:55.548Z,76.47
2019-01-28T17:46:23.732Z,76.68
2019-01-28T17:48:51.929Z,76.73
2019-01-28T17:51:20.115Z,76.79
2019-01-28T17:53:48.305Z,77.22
2019-01-28T17:56:16.491Z,77.26
2019-01-28T17:58:44.779Z,77.64
2019-01-28T18:01:12.961Z,77.25
2019-01-28T18:03:41.137Z,77.28
2019-01-28T18:06:09.316Z,77.20
2019-01-28T18:08:37.509Z,77.38
2019-01-28T18:11:05.687Z,77.58
2019-01-28T18:13:33.878Z,77.70
2019-01-28T18:16:02.061Z,77.26
2019-01-28T18:18:30.244Z,77.19
2019-01-28T18:20:58.420Z,77.48
2019-01-28T18:26:01.867Z,77.40
2019-01-28T18:28:30.130Z,77.38
2019-01-28T18:33:45.549Z,77.44
2019-01-28T18:36:13.727Z,76.82
2019-01-28T18:38:41.926Z,77.11
2019-01-28T18:41:10.105Z,77.01
2019-01-28T18:43:38.299Z,77.25
2019-01-28T18:46:06.479Z,77.07
2019-01-28T18:48:34.675Z,77.40
2019-01-28T18:51:02.864Z,77.42
2019-01-28T18:53:31.049Z,77.71
2019-01-28T18:55:59.226Z,77.19
2019-01-28T18:58:27.419Z,77.48
2019-01-28T19:00:55.596Z,77.64
2019-01-28T19:03:23.833Z,77.84
2019-01-28T19:08:59.997Z,77.52
2019-01-28T19:11:47.289Z,77.26
2019-01-28T19:14:34.596Z,77.70
2019-01-28T19:17:23.490Z,77.61
2019-01-28T19:22:27.144Z,77.76
2019-01-28T19:24:55.335Z,77.61
2019-01-28T19:27:23.514Z,77.43
2019-01-28T19:29:51.701Z,76.52
2019-01-28T19:32:19.887Z,77.01
2019-01-28T19:34:48.071Z,77.46
2019-01-28T19:37:16.255Z,77.11
2019-01-28T19:39:44.494Z,77.42
2019-01-28T19:42:12.674Z,77.19
2019-01-28T19:44:40.852Z,77.00
2019-01-28T19:47:09.056Z,76.92
2019-01-28T19:49:37.227Z,77.04
2019-01-28T19:52:05.438Z,77.19
2019-01-28T19:54:33.613Z,76.97
2019-01-28T19:57:01.803Z,77.35
2019-01-28T19:59:29.981Z,77.22
2019-01-28T20:01:58.167Z,77.31
2019-01-28T20:04:26.349Z,77.46
2019-01-28T20:06:54.535Z,77.49
2019-01-28T20:09:22.711Z,77.32
2019-01-28T20:11:50.907Z,77.35
2019-01-28T20:17:33.357Z,77.04
2019-01-28T20:20:01.536Z,76.77
2019-01-28T20:22:29.752Z,76.55
2019-01-28T20:24:57.910Z,76.42
2019-01-28T20:27:26.119Z,76.65
2019-01-28T20:29:54.271Z,76.56
2019-01-28T20:32:22.455Z,76.23
2019-01-28T20:34:50.634Z,76.05
2019-01-28T20:37:19.806Z,75.92
2019-01-28T20:39:48.740Z,76.16
2019-01-28T20:42:16.948Z,76.05
2019-01-28T20:44:45.112Z,75.85
2019-01-28T20:47:13.315Z,75.79
2019-01-28T20:49:41.480Z,75.12
2019-01-28T20:52:09.694Z,75.11
2019-01-28T20:54:37.853Z,75.06
2019-01-28T20:57:06.072Z,75.05
2019-01-28T20:59:34.236Z,74.96
2019-01-28T21:02:02.440Z,74.68
2019-01-28T21:04:30.624Z,74.50
2019-01-28T21:07:18.232Z,74.06
2019-01-28T21:09:46.426Z,74.51
2019-01-28T21:12:14.604Z,74.39
2019-01-28T21:14:42.773Z,74.10
2019-01-28T21:17:10.984Z,74.02
2019-01-28T21:19:39.147Z,74.22
2019-01-28T21:22:07.333Z,74.15
2019-01-28T21:24:35.513Z,74.07
2019-01-28T21:29:50.938Z,73.86
2019-01-28T21:32:19.133Z,73.85
2019-01-28T21:35:06.678Z,74.07
2019-01-28T21:37:34.869Z,74.03
2019-01-28T21:40:03.052Z,74.04
2019-01-28T21:42:31.233Z,74.02
2019-01-28T21:44:59.424Z,73.86
2019-01-28T21:47:27.606Z,73.68
2019-01-28T21:49:57.520Z,73.70
2019-01-28T21:52:25.704Z,73.71
2019-01-28T21:54:53.889Z,73.67
2019-01-28T21:57:22.068Z,73.52
2019-01-28T21:59:50.266Z,73.60
2019-01-28T22:02:18.448Z,73.21
2019-01-28T22:04:46.643Z,73.44
2019-01-28T22:07:14.835Z,73.12
2019-01-28T22:09:43.016Z,73.29
2019-01-28T22:12:11.197Z,73.25
2019-01-28T22:14:39.392Z,73.16
2019-01-28T22:17:27.006Z,73.03
2019-01-28T22:19:55.198Z,73.11
2019-01-28T22:22:23.379Z,73.12
2019-01-28T22:24:51.584Z,73.27
2019-01-28T22:27:19.753Z,73.29
2019-01-28T22:29:47.940Z,73.34
2019-01-28T22:32:16.122Z,73.25
2019-01-28T22:34:47.876Z,73.01
2019-01-28T22:37:14.209Z,73.10
2019-01-28T22:39:42.396Z,73.20
2019-01-28T22:42:29.692Z,73.20
2019-01-28T22:47:38.264Z,73.14
2019-01-28T22:50:25.897Z,73.12
2019-01-28T22:52:54.076Z,73.16
2019-01-28T22:55:41.697Z,73.13
2019-01-28T22:58:09.883Z,73.06
2019-01-28T23:01:18.190Z,73.04
2019-01-28T23:03:46.368Z,72.95
2019-01-28T23:06:14.571Z,72.95
2019-01-28T23:08:42.750Z,72.97
2019-01-28T23:11:10.946Z,72.96
2019-01-28T23:13:39.118Z,72.85
2019-01-28T23:16:07.309Z,73.15
2019-01-28T23:18:35.488Z,73.20
2019-01-28T23:21:03.684Z,73.19
2019-01-28T23:23:31.864Z,73.30
2019-01-28T23:26:00.065Z,73.30
2019-01-28T23:28:28.243Z,73.27
2019-01-28T23:30:56.440Z,73.29
2019-01-28T23:33:43.981Z,73.30
2019-01-28T23:36:12.176Z,73.30
2019-01-28T23:38:40.359Z,73.31
2019-01-28T23:41:08.548Z,73.35
2019-01-28T23:43:36.733Z,73.41
2019-01-28T23:46:24.292Z,73.42
2019-01-28T23:48:52.480Z,73.49
2019-01-28T23:51:20.680Z,73.51
2019-01-28T23:53:48.861Z,73.54
2019-01-28T23:58:51.325Z,73.62
